sensor_id;sensor_type;location;lat;lon;timestamp;P1;durP1;ratioP1;P2;durP2;ratioP2
76423;SDS011;65257;52.104;4.268;2022-12-18T00:01:24;34.83;;;16.33;;
76423;SDS011;65257;52.104;4.268;2022-12-18T00:03:51;46.85;;;18.25;;
76423;SDS011;65257;52.104;4.268;2022-12-18T00:06:18;77.70;;;25.63;;
76423;SDS011;65257;52.104;4.268;2022-12-18T00:08:45;63.90;;;21.90;;
76423;SDS011;65257;52.104;4.268;2022-12-18T00:11:20;60.42;;;21.17;;
76423;SDS011;65257;52.104;4.268;2022-12-18T00:13:48;48.08;;;18.77;;
76423;SDS011;65257;52.104;4.268;2022-12-18T00:16:16;57.88;;;22.77;;
76423;SDS011;65257;52.104;4.268;2022-12-18T00:18:46;60.80;;;21.40;;
76423;SDS011;65257;52.104;4.268;2022-12-18T00:21:16;59.90;;;22.48;;
76423;SDS011;65257;52.104;4.268;2022-12-18T00:23:43;38.28;;;15.02;;
76423;SDS011;65257;52.104;4.268;2022-12-18T00:26:20;51.17;;;18.25;;
76423;SDS011;65257;52.104;4.268;2022-12-18T00:29:13;65.78;;;20.50;;
76423;SDS011;65257;52.104;4.268;2022-12-18T00:31:47;45.80;;;17.42;;
76423;SDS011;65257;52.104;4.268;2022-12-18T00:34:16;35.83;;;17.77;;
76423;SDS011;65257;52.104;4.268;2022-12-18T00:36:41;73.05;;;23.23;;
76423;SDS011;65257;52.104;4.268;2022-12-18T00:39:07;61.05;;;22.45;;
76423;SDS011;65257;52.104;4.268;2022-12-18T00:41:33;63.25;;;18.25;;
76423;SDS011;65257;52.104;4.268;2022-12-18T00:44:18;47.45;;;16.38;;
76423;SDS011;65257;52.104;4.268;2022-12-18T00:46:45;46.65;;;16.52;;
76423;SDS011;65257;52.104;4.268;2022-12-18T00:49:12;46.45;;;18.60;;
76423;SDS011;65257;52.104;4.268;2022-12-18T00:51:38;44.85;;;20.58;;
76423;SDS011;65257;52.104;4.268;2022-12-18T00:54:05;75.30;;;25.60;;
76423;SDS011;65257;52.104;4.268;2022-12-18T00:56:30;61.72;;;20.85;;
76423;SDS011;65257;52.104;4.268;2022-12-18T00:58:56;51.35;;;16.40;;
76423;SDS011;65257;52.104;4.268;2022-12-18T01:01:21;66.78;;;24.85;;
76423;SDS011;65257;52.104;4.268;2022-12-18T01:03:47;65.88;;;22.92;;
76423;SDS011;65257;52.104;4.268;2022-12-18T01:06:12;72.68;;;24.27;;
76423;SDS011;65257;52.104;4.268;2022-12-18T01:08:39;67.45;;;21.58;;
76423;SDS011;65257;52.104;4.268;2022-12-18T01:11:09;64.88;;;21.60;;
76423;SDS011;65257;52.104;4.268;2022-12-18T01:13:36;54.20;;;19.95;;
76423;SDS011;65257;52.104;4.268;2022-12-18T01:16:02;51.25;;;18.35;;
76423;SDS011;65257;52.104;4.268;2022-12-18T01:18:28;55.38;;;20.52;;
76423;SDS011;65257;52.104;4.268;2022-12-18T01:20:53;61.80;;;22.50;;
76423;SDS011;65257;52.104;4.268;2022-12-18T01:23:18;65.38;;;23.63;;
76423;SDS011;65257;52.104;4.268;2022-12-18T01:25:47;74.45;;;23.80;;
76423;SDS011;65257;52.104;4.268;2022-12-18T01:28:12;52.65;;;17.75;;
76423;SDS011;65257;52.104;4.268;2022-12-18T01:30:39;61.33;;;19.40;;
76423;SDS011;65257;52.104;4.268;2022-12-18T01:33:05;50.17;;;20.05;;
76423;SDS011;65257;52.104;4.268;2022-12-18T01:36:15;61.75;;;22.15;;
76423;SDS011;65257;52.104;4.268;2022-12-18T01:38:22;61.85;;;22.85;;
76423;SDS011;65257;52.104;4.268;2022-12-18T01:40:47;61.28;;;20.98;;
76423;SDS011;65257;52.104;4.268;2022-12-18T01:43:12;41.28;;;17.63;;
76423;SDS011;65257;52.104;4.268;2022-12-18T01:45:38;51.55;;;18.70;;
76423;SDS011;65257;52.104;4.268;2022-12-18T01:48:05;50.22;;;21.90;;
76423;SDS011;65257;52.104;4.268;2022-12-18T01:50:38;58.25;;;22.55;;
76423;SDS011;65257;52.104;4.268;2022-12-18T01:55:50;40.22;;;17.70;;
76423;SDS011;65257;52.104;4.268;2022-12-18T01:58:18;36.67;;;17.20;;
76423;SDS011;65257;52.104;4.268;2022-12-18T02:00:45;51.33;;;18.67;;
76423;SDS011;65257;52.104;4.268;2022-12-18T02:03:11;51.35;;;20.05;;
76423;SDS011;65257;52.104;4.268;2022-12-18T02:05:43;47.95;;;19.10;;
76423;SDS011;65257;52.104;4.268;2022-12-18T02:10:46;69.82;;;25.17;;
76423;SDS011;65257;52.104;4.268;2022-12-18T02:13:23;41.28;;;16.77;;
76423;SDS011;65257;52.104;4.268;2022-12-18T02:18:50;33.58;;;12.82;;
76423;SDS011;65257;52.104;4.268;2022-12-18T02:26:45;53.30;;;18.95;;
76423;SDS011;65257;52.104;4.268;2022-12-18T02:29:41;47.53;;;18.17;;
76423;SDS011;65257;52.104;4.268;2022-12-18T02:32:24;40.20;;;14.98;;
76423;SDS011;65257;52.104;4.268;2022-12-18T02:34:59;38.92;;;17.10;;
76423;SDS011;65257;52.104;4.268;2022-12-18T02:37:27;53.05;;;20.38;;
76423;SDS011;65257;52.104;4.268;2022-12-18T02:39:59;39.40;;;17.95;;
76423;SDS011;65257;52.104;4.268;2022-12-18T02:42:27;51.60;;;19.45;;
76423;SDS011;65257;52.104;4.268;2022-12-18T02:44:53;49.72;;;18.63;;
76423;SDS011;65257;52.104;4.268;2022-12-18T02:47:20;29.05;;;15.13;;
76423;SDS011;65257;52.104;4.268;2022-12-18T03:03:43;33.80;;;14.02;;
76423;SDS011;65257;52.104;4.268;2022-12-18T03:06:18;47.90;;;17.65;;
76423;SDS011;65257;52.104;4.268;2022-12-18T03:08:57;41.05;;;15.73;;
76423;SDS011;65257;52.104;4.268;2022-12-18T03:11:33;46.42;;;16.77;;
76423;SDS011;65257;52.104;4.268;2022-12-18T03:14:20;34.40;;;14.45;;
76423;SDS011;65257;52.104;4.268;2022-12-18T03:17:04;38.75;;;14.45;;
76423;SDS011;65257;52.104;4.268;2022-12-18T03:19:43;61.83;;;22.30;;
76423;SDS011;65257;52.104;4.268;2022-12-18T03:22:14;42.65;;;18.10;;
76423;SDS011;65257;52.104;4.268;2022-12-18T03:24:41;35.20;;;15.05;;
76423;SDS011;65257;52.104;4.268;2022-12-18T03:27:12;34.00;;;13.20;;
76423;SDS011;65257;52.104;4.268;2022-12-18T03:29:50;32.63;;;13.68;;
76423;SDS011;65257;52.104;4.268;2022-12-18T03:32:28;49.05;;;18.00;;
76423;SDS011;65257;52.104;4.268;2022-12-18T03:35:18;37.20;;;14.93;;
76423;SDS011;65257;52.104;4.268;2022-12-18T03:37:50;46.72;;;14.95;;
76423;SDS011;65257;52.104;4.268;2022-12-18T03:40:16;45.30;;;16.52;;
76423;SDS011;65257;52.104;4.268;2022-12-18T03:43:00;44.95;;;17.17;;
76423;SDS011;65257;52.104;4.268;2022-12-18T03:45:36;35.70;;;14.55;;
76423;SDS011;65257;52.104;4.268;2022-12-18T03:50:57;37.90;;;15.65;;
76423;SDS011;65257;52.104;4.268;2022-12-18T03:56:08;47.25;;;16.92;;
76423;SDS011;65257;52.104;4.268;2022-12-18T03:58:35;26.73;;;13.20;;
76423;SDS011;65257;52.104;4.268;2022-12-18T04:01:04;38.85;;;16.85;;
76423;SDS011;65257;52.104;4.268;2022-12-18T04:03:32;40.38;;;16.20;;
76423;SDS011;65257;52.104;4.268;2022-12-18T04:06:01;39.22;;;14.70;;
76423;SDS011;65257;52.104;4.268;2022-12-18T04:08:27;27.58;;;12.05;;
76423;SDS011;65257;52.104;4.268;2022-12-18T04:10:54;49.78;;;18.27;;
76423;SDS011;65257;52.104;4.268;2022-12-18T04:13:38;29.33;;;7.55;;
76423;SDS011;65257;52.104;4.268;2022-12-18T04:16:08;34.63;;;13.35;;
76423;SDS011;65257;52.104;4.268;2022-12-18T04:18:34;45.80;;;17.45;;
76423;SDS011;65257;52.104;4.268;2022-12-18T04:21:12;25.42;;;12.25;;
76423;SDS011;65257;52.104;4.268;2022-12-18T04:23:44;45.40;;;13.50;;
76423;SDS011;65257;52.104;4.268;2022-12-18T04:26:09;26.27;;;13.60;;
76423;SDS011;65257;52.104;4.268;2022-12-18T04:28:35;39.38;;;14.07;;
76423;SDS011;65257;52.104;4.268;2022-12-18T04:31:03;31.23;;;13.50;;
76423;SDS011;65257;52.104;4.268;2022-12-18T04:33:30;34.85;;;13.98;;
76423;SDS011;65257;52.104;4.268;2022-12-18T04:35:55;38.13;;;14.50;;
76423;SDS011;65257;52.104;4.268;2022-12-18T04:38:23;24.58;;;11.60;;
76423;SDS011;65257;52.104;4.268;2022-12-18T04:40:51;25.52;;;12.82;;
76423;SDS011;65257;52.104;4.268;2022-12-18T04:43:17;34.53;;;14.80;;
76423;SDS011;65257;52.104;4.268;2022-12-18T04:45:42;24.77;;;11.85;;
76423;SDS011;65257;52.104;4.268;2022-12-18T04:48:07;36.78;;;16.30;;
76423;SDS011;65257;52.104;4.268;2022-12-18T04:50:33;17.60;;;11.82;;
76423;SDS011;65257;52.104;4.268;2022-12-18T04:53:04;32.53;;;11.90;;
76423;SDS011;65257;52.104;4.268;2022-12-18T04:55:29;33.42;;;13.25;;
76423;SDS011;65257;52.104;4.268;2022-12-18T04:57:55;31.05;;;11.52;;
76423;SDS011;65257;52.104;4.268;2022-12-18T05:00:23;32.22;;;14.43;;
76423;SDS011;65257;52.104;4.268;2022-12-18T05:02:49;21.20;;;11.40;;
76423;SDS011;65257;52.104;4.268;2022-12-18T05:05:14;33.50;;;14.65;;
76423;SDS011;65257;52.104;4.268;2022-12-18T05:07:40;29.67;;;12.05;;
76423;SDS011;65257;52.104;4.268;2022-12-18T05:10:05;30.60;;;12.27;;
76423;SDS011;65257;52.104;4.268;2022-12-18T05:12:34;32.20;;;11.45;;
76423;SDS011;65257;52.104;4.268;2022-12-18T05:15:19;31.88;;;14.48;;
76423;SDS011;65257;52.104;4.268;2022-12-18T05:17:44;27.00;;;9.18;;
76423;SDS011;65257;52.104;4.268;2022-12-18T05:20:13;22.73;;;10.00;;
76423;SDS011;65257;52.104;4.268;2022-12-18T05:22:42;34.47;;;13.05;;
76423;SDS011;65257;52.104;4.268;2022-12-18T05:25:07;28.75;;;11.85;;
76423;SDS011;65257;52.104;4.268;2022-12-18T05:27:33;20.83;;;11.18;;
76423;SDS011;65257;52.104;4.268;2022-12-18T05:29:58;27.83;;;12.85;;
76423;SDS011;65257;52.104;4.268;2022-12-18T05:32:24;30.50;;;11.82;;
76423;SDS011;65257;52.104;4.268;2022-12-18T05:34:53;34.28;;;13.10;;
76423;SDS011;65257;52.104;4.268;2022-12-18T05:37:19;20.63;;;10.13;;
76423;SDS011;65257;52.104;4.268;2022-12-18T05:39:47;19.85;;;10.80;;
76423;SDS011;65257;52.104;4.268;2022-12-18T05:42:13;28.50;;;11.25;;
76423;SDS011;65257;52.104;4.268;2022-12-18T05:44:38;22.00;;;12.02;;
76423;SDS011;65257;52.104;4.268;2022-12-18T05:47:03;22.33;;;11.68;;
76423;SDS011;65257;52.104;4.268;2022-12-18T05:49:32;31.02;;;12.07;;
76423;SDS011;65257;52.104;4.268;2022-12-18T05:52:00;27.08;;;12.18;;
76423;SDS011;65257;52.104;4.268;2022-12-18T05:54:32;22.55;;;9.55;;
76423;SDS011;65257;52.104;4.268;2022-12-18T05:57:00;20.52;;;10.73;;
76423;SDS011;65257;52.104;4.268;2022-12-18T05:59:26;34.15;;;12.15;;
76423;SDS011;65257;52.104;4.268;2022-12-18T06:01:51;32.70;;;11.20;;
76423;SDS011;65257;52.104;4.268;2022-12-18T06:04:17;16.35;;;8.60;;
76423;SDS011;65257;52.104;4.268;2022-12-18T06:06:42;25.00;;;10.88;;
76423;SDS011;65257;52.104;4.268;2022-12-18T06:09:11;28.45;;;12.60;;
76423;SDS011;65257;52.104;4.268;2022-12-18T06:11:37;20.42;;;9.70;;
76423;SDS011;65257;52.104;4.268;2022-12-18T06:14:04;32.80;;;10.18;;
76423;SDS011;65257;52.104;4.268;2022-12-18T06:16:40;25.10;;;10.93;;
76423;SDS011;65257;52.104;4.268;2022-12-18T06:19:15;28.50;;;12.57;;
76423;SDS011;65257;52.104;4.268;2022-12-18T06:21:41;27.92;;;11.55;;
76423;SDS011;65257;52.104;4.268;2022-12-18T06:24:14;26.38;;;14.05;;
76423;SDS011;65257;52.104;4.268;2022-12-18T06:26:42;22.33;;;11.45;;
76423;SDS011;65257;52.104;4.268;2022-12-18T06:29:07;35.78;;;12.73;;
76423;SDS011;65257;52.104;4.268;2022-12-18T06:31:33;18.85;;;9.55;;
76423;SDS011;65257;52.104;4.268;2022-12-18T06:33:59;27.63;;;12.90;;
76423;SDS011;65257;52.104;4.268;2022-12-18T06:36:28;17.85;;;7.85;;
76423;SDS011;65257;52.104;4.268;2022-12-18T06:38:54;24.65;;;10.48;;
76423;SDS011;65257;52.104;4.268;2022-12-18T06:41:23;27.58;;;11.75;;
76423;SDS011;65257;52.104;4.268;2022-12-18T06:43:52;39.45;;;13.20;;
76423;SDS011;65257;52.104;4.268;2022-12-18T06:46:17;21.80;;;11.23;;
76423;SDS011;65257;52.104;4.268;2022-12-18T06:48:46;25.13;;;10.60;;
76423;SDS011;65257;52.104;4.268;2022-12-18T06:51:18;18.58;;;9.65;;
76423;SDS011;65257;52.104;4.268;2022-12-18T06:53:45;23.15;;;10.93;;
76423;SDS011;65257;52.104;4.268;2022-12-18T06:56:14;20.13;;;8.90;;
76423;SDS011;65257;52.104;4.268;2022-12-18T06:58:48;19.90;;;12.35;;
76423;SDS011;65257;52.104;4.268;2022-12-18T07:01:14;23.30;;;11.05;;
76423;SDS011;65257;52.104;4.268;2022-12-18T07:03:42;20.77;;;9.48;;
76423;SDS011;65257;52.104;4.268;2022-12-18T07:06:14;21.10;;;11.50;;
76423;SDS011;65257;52.104;4.268;2022-12-18T07:08:48;23.85;;;11.50;;
76423;SDS011;65257;52.104;4.268;2022-12-18T07:11:17;20.58;;;11.20;;
76423;SDS011;65257;52.104;4.268;2022-12-18T07:13:44;22.73;;;10.02;;
76423;SDS011;65257;52.104;4.268;2022-12-18T07:16:14;18.25;;;8.52;;
76423;SDS011;65257;52.104;4.268;2022-12-18T07:18:41;34.30;;;14.32;;
76423;SDS011;65257;52.104;4.268;2022-12-18T07:21:09;16.73;;;9.30;;
76423;SDS011;65257;52.104;4.268;2022-12-18T07:23:40;23.48;;;11.40;;
76423;SDS011;65257;52.104;4.268;2022-12-18T07:26:10;17.70;;;7.60;;
76423;SDS011;65257;52.104;4.268;2022-12-18T07:28:40;21.73;;;11.32;;
76423;SDS011;65257;52.104;4.268;2022-12-18T07:31:06;19.30;;;10.48;;
76423;SDS011;65257;52.104;4.268;2022-12-18T07:33:39;21.25;;;10.65;;
76423;SDS011;65257;52.104;4.268;2022-12-18T07:36:05;11.77;;;8.05;;
76423;SDS011;65257;52.104;4.268;2022-12-18T07:38:33;13.77;;;8.20;;
76423;SDS011;65257;52.104;4.268;2022-12-18T07:41:07;18.30;;;7.28;;
76423;SDS011;65257;52.104;4.268;2022-12-18T07:43:48;16.20;;;7.28;;
76423;SDS011;65257;52.104;4.268;2022-12-18T07:46:14;13.88;;;9.20;;
76423;SDS011;65257;52.104;4.268;2022-12-18T07:48:43;17.65;;;8.50;;
76423;SDS011;65257;52.104;4.268;2022-12-18T07:51:12;15.88;;;7.20;;
76423;SDS011;65257;52.104;4.268;2022-12-18T07:53:47;19.33;;;10.43;;
76423;SDS011;65257;52.104;4.268;2022-12-18T07:56:13;13.00;;;8.27;;
76423;SDS011;65257;52.104;4.268;2022-12-18T07:58:41;16.35;;;7.85;;
76423;SDS011;65257;52.104;4.268;2022-12-18T08:01:07;14.60;;;8.18;;
76423;SDS011;65257;52.104;4.268;2022-12-18T08:03:35;14.35;;;6.78;;
76423;SDS011;65257;52.104;4.268;2022-12-18T08:06:03;15.18;;;7.53;;
76423;SDS011;65257;52.104;4.268;2022-12-18T08:08:30;14.75;;;7.07;;
76423;SDS011;65257;52.104;4.268;2022-12-18T08:10:56;12.65;;;9.10;;
76423;SDS011;65257;52.104;4.268;2022-12-18T08:13:22;11.57;;;6.05;;
76423;SDS011;65257;52.104;4.268;2022-12-18T08:16:06;15.48;;;8.13;;
76423;SDS011;65257;52.104;4.268;2022-12-18T08:18:37;24.17;;;9.30;;
76423;SDS011;65257;52.104;4.268;2022-12-18T08:21:09;14.88;;;7.18;;
76423;SDS011;65257;52.104;4.268;2022-12-18T08:23:46;14.27;;;7.75;;
76423;SDS011;65257;52.104;4.268;2022-12-18T08:26:12;11.35;;;7.70;;
76423;SDS011;65257;52.104;4.268;2022-12-18T08:28:38;22.08;;;8.70;;
76423;SDS011;65257;52.104;4.268;2022-12-18T08:31:04;13.75;;;8.35;;
76423;SDS011;65257;52.104;4.268;2022-12-18T08:33:34;15.98;;;9.60;;
76423;SDS011;65257;52.104;4.268;2022-12-18T08:36:14;20.17;;;7.50;;
76423;SDS011;65257;52.104;4.268;2022-12-18T08:38:40;15.30;;;7.75;;
76423;SDS011;65257;52.104;4.268;2022-12-18T08:41:10;19.23;;;9.63;;
76423;SDS011;65257;52.104;4.268;2022-12-18T08:43:42;14.68;;;8.25;;
76423;SDS011;65257;52.104;4.268;2022-12-18T08:46:26;16.10;;;9.60;;
76423;SDS011;65257;52.104;4.268;2022-12-18T08:48:56;13.85;;;6.70;;
76423;SDS011;65257;52.104;4.268;2022-12-18T08:51:21;14.40;;;7.10;;
76423;SDS011;65257;52.104;4.268;2022-12-18T08:53:47;14.32;;;6.22;;
76423;SDS011;65257;52.104;4.268;2022-12-18T08:56:13;13.52;;;7.75;;
76423;SDS011;65257;52.104;4.268;2022-12-18T08:58:39;16.35;;;9.52;;
76423;SDS011;65257;52.104;4.268;2022-12-18T09:01:06;17.38;;;8.85;;
76423;SDS011;65257;52.104;4.268;2022-12-18T09:03:36;12.20;;;7.95;;
76423;SDS011;65257;52.104;4.268;2022-12-18T09:06:01;19.45;;;7.93;;
76423;SDS011;65257;52.104;4.268;2022-12-18T09:08:30;9.77;;;6.72;;
76423;SDS011;65257;52.104;4.268;2022-12-18T09:10:59;10.77;;;6.18;;
76423;SDS011;65257;52.104;4.268;2022-12-18T09:13:24;17.67;;;8.93;;
76423;SDS011;65257;52.104;4.268;2022-12-18T09:15:53;11.07;;;7.60;;
76423;SDS011;65257;52.104;4.268;2022-12-18T09:18:22;12.32;;;5.43;;
76423;SDS011;65257;52.104;4.268;2022-12-18T09:20:49;11.85;;;7.68;;
76423;SDS011;65257;52.104;4.268;2022-12-18T09:23:17;14.25;;;7.88;;
76423;SDS011;65257;52.104;4.268;2022-12-18T09:25:46;14.20;;;6.78;;
76423;SDS011;65257;52.104;4.268;2022-12-18T09:28:12;17.27;;;7.75;;
76423;SDS011;65257;52.104;4.268;2022-12-18T09:30:40;13.90;;;7.25;;
76423;SDS011;65257;52.104;4.268;2022-12-18T09:33:08;16.33;;;8.75;;
76423;SDS011;65257;52.104;4.268;2022-12-18T09:35:37;16.80;;;8.15;;
76423;SDS011;65257;52.104;4.268;2022-12-18T09:38:04;14.63;;;7.78;;
76423;SDS011;65257;52.104;4.268;2022-12-18T09:40:32;11.18;;;7.03;;
76423;SDS011;65257;52.104;4.268;2022-12-18T09:43:02;14.15;;;7.82;;
76423;SDS011;65257;52.104;4.268;2022-12-18T09:45:43;15.23;;;8.10;;
76423;SDS011;65257;52.104;4.268;2022-12-18T09:51:16;11.48;;;7.75;;
76423;SDS011;65257;52.104;4.268;2022-12-18T09:54:02;13.77;;;7.93;;
76423;SDS011;65257;52.104;4.268;2022-12-18T09:56:35;15.52;;;9.18;;
76423;SDS011;65257;52.104;4.268;2022-12-18T09:59:05;22.55;;;9.13;;
76423;SDS011;65257;52.104;4.268;2022-12-18T10:01:33;15.82;;;7.65;;
76423;SDS011;65257;52.104;4.268;2022-12-18T10:04:04;10.27;;;7.45;;
76423;SDS011;65257;52.104;4.268;2022-12-18T10:06:44;15.05;;;8.55;;
76423;SDS011;65257;52.104;4.268;2022-12-18T10:12:21;11.75;;;7.05;;
76423;SDS011;65257;52.104;4.268;2022-12-18T10:15:24;17.23;;;9.32;;
76423;SDS011;65257;52.104;4.268;2022-12-18T10:21:23;11.85;;;7.93;;
76423;SDS011;65257;52.104;4.268;2022-12-18T10:24:01;8.38;;;6.03;;
76423;SDS011;65257;52.104;4.268;2022-12-18T10:26:47;14.05;;;7.47;;
76423;SDS011;65257;52.104;4.268;2022-12-18T10:29:13;12.38;;;6.60;;
76423;SDS011;65257;52.104;4.268;2022-12-18T10:31:40;15.48;;;8.48;;
76423;SDS011;65257;52.104;4.268;2022-12-18T10:34:09;11.95;;;6.65;;
76423;SDS011;65257;52.104;4.268;2022-12-18T10:36:47;13.07;;;9.13;;
76423;SDS011;65257;52.104;4.268;2022-12-18T10:39:20;18.73;;;11.95;;
76423;SDS011;65257;52.104;4.268;2022-12-18T10:42:04;13.88;;;8.05;;
76423;SDS011;65257;52.104;4.268;2022-12-18T10:47:06;13.40;;;6.32;;
76423;SDS011;65257;52.104;4.268;2022-12-18T10:49:52;14.15;;;7.85;;
76423;SDS011;65257;52.104;4.268;2022-12-18T10:52:23;11.82;;;7.25;;
76423;SDS011;65257;52.104;4.268;2022-12-18T10:55:03;11.90;;;8.18;;
76423;SDS011;65257;52.104;4.268;2022-12-18T10:57:38;10.40;;;7.72;;
76423;SDS011;65257;52.104;4.268;2022-12-18T11:03:00;8.55;;;6.32;;
76423;SDS011;65257;52.104;4.268;2022-12-18T11:05:28;16.65;;;8.93;;
76423;SDS011;65257;52.104;4.268;2022-12-18T11:08:04;16.38;;;7.60;;
76423;SDS011;65257;52.104;4.268;2022-12-18T11:10:42;16.90;;;8.93;;
76423;SDS011;65257;52.104;4.268;2022-12-18T11:13:21;11.82;;;6.40;;
76423;SDS011;65257;52.104;4.268;2022-12-18T11:15:49;10.10;;;6.53;;
76423;SDS011;65257;52.104;4.268;2022-12-18T11:18:20;16.00;;;8.68;;
76423;SDS011;65257;52.104;4.268;2022-12-18T11:20:51;16.42;;;8.45;;
76423;SDS011;65257;52.104;4.268;2022-12-18T11:23:48;11.63;;;8.00;;
76423;SDS011;65257;52.104;4.268;2022-12-18T11:26:15;11.35;;;7.43;;
76423;SDS011;65257;52.104;4.268;2022-12-18T11:28:52;11.02;;;7.43;;
76423;SDS011;65257;52.104;4.268;2022-12-18T11:31:36;16.60;;;8.40;;
76423;SDS011;65257;52.104;4.268;2022-12-18T11:34:09;12.05;;;6.63;;
76423;SDS011;65257;52.104;4.268;2022-12-18T11:36:40;14.45;;;8.88;;
76423;SDS011;65257;52.104;4.268;2022-12-18T11:39:12;11.20;;;7.03;;
76423;SDS011;65257;52.104;4.268;2022-12-18T11:41:54;12.93;;;6.93;;
76423;SDS011;65257;52.104;4.268;2022-12-18T11:53:18;12.55;;;6.90;;
76423;SDS011;65257;52.104;4.268;2022-12-18T11:56:00;13.65;;;7.70;;
76423;SDS011;65257;52.104;4.268;2022-12-18T11:58:34;12.57;;;7.28;;
76423;SDS011;65257;52.104;4.268;2022-12-18T12:06:58;10.88;;;6.68;;
76423;SDS011;65257;52.104;4.268;2022-12-18T12:12:34;16.48;;;9.00;;
76423;SDS011;65257;52.104;4.268;2022-12-18T12:15:22;10.90;;;4.75;;
76423;SDS011;65257;52.104;4.268;2022-12-18T12:18:01;7.45;;;5.75;;
76423;SDS011;65257;52.104;4.268;2022-12-18T12:26:33;8.52;;;5.13;;
76423;SDS011;65257;52.104;4.268;2022-12-18T12:37:58;13.57;;;7.30;;
76423;SDS011;65257;52.104;4.268;2022-12-18T12:40:35;13.25;;;7.75;;
76423;SDS011;65257;52.104;4.268;2022-12-18T12:43:15;9.45;;;6.85;;
76423;SDS011;65257;52.104;4.268;2022-12-18T12:45:54;12.57;;;9.15;;
76423;SDS011;65257;52.104;4.268;2022-12-18T12:51:16;13.30;;;8.50;;
76423;SDS011;65257;52.104;4.268;2022-12-18T12:53:50;17.27;;;7.35;;
76423;SDS011;65257;52.104;4.268;2022-12-18T12:56:19;16.42;;;8.73;;
76423;SDS011;65257;52.104;4.268;2022-12-18T12:59:09;13.90;;;8.63;;
76423;SDS011;65257;52.104;4.268;2022-12-18T13:01:49;13.93;;;7.95;;
76423;SDS011;65257;52.104;4.268;2022-12-18T13:07:14;13.32;;;7.53;;
76423;SDS011;65257;52.104;4.268;2022-12-18T13:15:39;14.10;;;7.50;;
76423;SDS011;65257;52.104;4.268;2022-12-18T13:18:28;9.43;;;5.00;;
76423;SDS011;65257;52.104;4.268;2022-12-18T13:23:29;14.80;;;8.75;;
76423;SDS011;65257;52.104;4.268;2022-12-18T13:28:53;15.82;;;8.82;;
76423;SDS011;65257;52.104;4.268;2022-12-18T13:44:34;11.45;;;6.90;;
76423;SDS011;65257;52.104;4.268;2022-12-18T13:47:02;14.38;;;8.95;;
76423;SDS011;65257;52.104;4.268;2022-12-18T13:49:40;15.05;;;10.60;;
76423;SDS011;65257;52.104;4.268;2022-12-18T13:54:51;8.48;;;7.07;;
76423;SDS011;65257;52.104;4.268;2022-12-18T13:57:49;14.15;;;8.50;;
76423;SDS011;65257;52.104;4.268;2022-12-18T14:02:44;16.55;;;9.13;;
76423;SDS011;65257;52.104;4.268;2022-12-18T14:05:26;14.57;;;9.27;;
76423;SDS011;65257;52.104;4.268;2022-12-18T14:07:55;12.50;;;7.28;;
76423;SDS011;65257;52.104;4.268;2022-12-18T14:10:29;11.82;;;7.88;;
76423;SDS011;65257;52.104;4.268;2022-12-18T14:13:05;16.60;;;9.10;;
76423;SDS011;65257;52.104;4.268;2022-12-18T14:21:18;16.20;;;8.73;;
76423;SDS011;65257;52.104;4.268;2022-12-18T14:24:03;16.92;;;9.25;;
76423;SDS011;65257;52.104;4.268;2022-12-18T14:26:42;15.02;;;8.55;;
76423;SDS011;65257;52.104;4.268;2022-12-18T14:29:24;15.00;;;8.00;;
76423;SDS011;65257;52.104;4.268;2022-12-18T14:34:45;15.77;;;8.55;;
76423;SDS011;65257;52.104;4.268;2022-12-18T14:37:26;15.10;;;10.05;;
76423;SDS011;65257;52.104;4.268;2022-12-18T14:39:59;17.63;;;8.27;;
76423;SDS011;65257;52.104;4.268;2022-12-18T14:42:29;14.18;;;9.05;;
76423;SDS011;65257;52.104;4.268;2022-12-18T14:48:05;10.13;;;7.32;;
76423;SDS011;65257;52.104;4.268;2022-12-18T14:52:59;13.90;;;7.88;;
76423;SDS011;65257;52.104;4.268;2022-12-18T14:55:24;13.70;;;9.07;;
76423;SDS011;65257;52.104;4.268;2022-12-18T14:57:53;17.10;;;10.85;;
76423;SDS011;65257;52.104;4.268;2022-12-18T15:00:22;16.10;;;8.52;;
76423;SDS011;65257;52.104;4.268;2022-12-18T15:02:50;17.30;;;9.38;;
76423;SDS011;65257;52.104;4.268;2022-12-18T15:07:51;14.60;;;9.18;;
76423;SDS011;65257;52.104;4.268;2022-12-18T15:20:38;14.88;;;7.97;;
76423;SDS011;65257;52.104;4.268;2022-12-18T15:23:17;11.98;;;6.72;;
76423;SDS011;65257;52.104;4.268;2022-12-18T15:25:57;16.33;;;8.70;;
76423;SDS011;65257;52.104;4.268;2022-12-18T15:30:59;15.95;;;9.40;;
76423;SDS011;65257;52.104;4.268;2022-12-18T15:33:34;13.32;;;8.60;;
76423;SDS011;65257;52.104;4.268;2022-12-18T15:36:03;13.10;;;8.82;;
76423;SDS011;65257;52.104;4.268;2022-12-18T15:38:36;14.93;;;9.43;;
76423;SDS011;65257;52.104;4.268;2022-12-18T15:41:02;13.07;;;8.23;;
76423;SDS011;65257;52.104;4.268;2022-12-18T15:43:31;15.00;;;8.65;;
76423;SDS011;65257;52.104;4.268;2022-12-18T15:46:07;11.77;;;6.85;;
76423;SDS011;65257;52.104;4.268;2022-12-18T15:48:43;18.85;;;9.13;;
76423;SDS011;65257;52.104;4.268;2022-12-18T15:51:15;12.73;;;7.78;;
76423;SDS011;65257;52.104;4.268;2022-12-18T15:53:53;16.40;;;9.95;;
76423;SDS011;65257;52.104;4.268;2022-12-18T15:56:20;16.83;;;8.43;;
76423;SDS011;65257;52.104;4.268;2022-12-18T15:59:09;15.55;;;9.27;;
76423;SDS011;65257;52.104;4.268;2022-12-18T16:01:37;13.00;;;8.13;;
76423;SDS011;65257;52.104;4.268;2022-12-18T16:04:02;14.15;;;8.38;;
76423;SDS011;65257;52.104;4.268;2022-12-18T16:06:28;17.48;;;9.30;;
76423;SDS011;65257;52.104;4.268;2022-12-18T16:08:56;17.65;;;9.45;;
76423;SDS011;65257;52.104;4.268;2022-12-18T16:11:23;12.48;;;7.07;;
76423;SDS011;65257;52.104;4.268;2022-12-18T16:14:18;15.68;;;8.55;;
76423;SDS011;65257;52.104;4.268;2022-12-18T16:16:55;15.65;;;9.70;;
76423;SDS011;65257;52.104;4.268;2022-12-18T16:19:27;15.95;;;7.43;;
76423;SDS011;65257;52.104;4.268;2022-12-18T16:21:54;15.85;;;9.68;;
76423;SDS011;65257;52.104;4.268;2022-12-18T16:24:25;20.63;;;11.10;;
76423;SDS011;65257;52.104;4.268;2022-12-18T16:26:52;13.55;;;7.90;;
76423;SDS011;65257;52.104;4.268;2022-12-18T16:29:20;11.63;;;7.28;;
76423;SDS011;65257;52.104;4.268;2022-12-18T16:31:51;15.23;;;8.40;;
76423;SDS011;65257;52.104;4.268;2022-12-18T16:34:20;12.48;;;7.57;;
76423;SDS011;65257;52.104;4.268;2022-12-18T16:36:54;18.95;;;10.55;;
76423;SDS011;65257;52.104;4.268;2022-12-18T16:39:27;14.85;;;9.30;;
76423;SDS011;65257;52.104;4.268;2022-12-18T16:41:55;14.35;;;8.70;;
76423;SDS011;65257;52.104;4.268;2022-12-18T16:44:20;15.00;;;9.13;;
76423;SDS011;65257;52.104;4.268;2022-12-18T16:46:46;17.02;;;10.48;;
76423;SDS011;65257;52.104;4.268;2022-12-18T16:49:12;18.90;;;8.80;;
76423;SDS011;65257;52.104;4.268;2022-12-18T16:51:38;17.63;;;9.23;;
76423;SDS011;65257;52.104;4.268;2022-12-18T16:54:08;17.85;;;9.63;;
76423;SDS011;65257;52.104;4.268;2022-12-18T16:56:33;18.33;;;10.55;;
76423;SDS011;65257;52.104;4.268;2022-12-18T16:59:00;15.95;;;10.77;;
76423;SDS011;65257;52.104;4.268;2022-12-18T17:01:27;17.38;;;9.80;;
76423;SDS011;65257;52.104;4.268;2022-12-18T17:03:55;22.52;;;12.88;;
76423;SDS011;65257;52.104;4.268;2022-12-18T17:06:23;18.17;;;9.05;;
76423;SDS011;65257;52.104;4.268;2022-12-18T17:08:56;15.18;;;10.15;;
76423;SDS011;65257;52.104;4.268;2022-12-18T17:11:26;19.63;;;9.18;;
76423;SDS011;65257;52.104;4.268;2022-12-18T17:13:53;18.02;;;10.82;;
76423;SDS011;65257;52.104;4.268;2022-12-18T17:16:19;14.57;;;9.10;;